Time;durP1;ratioP1;P1;durP2;ratioP2;P2;SDS_P1;SDS_P2;PMS_P1;PMS_P2;Temp;Humidity;BMP_temperature;BMP_pressure;BME280_temperature;BME280_humidity;BME280_pressure;Samples;Min_cycle;Max_cycle;Signal;HPM_P1;HPM_P2
2020/12/04 00:02:07;;;;;;;;;;;5.30;71.80;;;;;;4957296;28;19944;-43
2020/12/04 00:04:34;;;;;;;;;;;5.20;72.00;;;;;;4966037;28;19956;-44
2020/12/04 00:07:01;;;;;;;;;;;5.20;72.10;;;;;;4957352;28;20003;-44
2020/12/04 00:09:28;;;;;;;;;;;5.20;72.40;;;;;;4957962;28;20003;-43
2020/12/04 00:11:56;;;;;;;;;;;5.20;72.50;;;;;;4958846;28;19933;-44
2020/12/04 00:14:24;;;;;;;;;;;5.20;72.70;;;;;;4952075;28;20399;-44
2020/12/04 00:16:52;;;;;;;;;;;5.20;72.70;;;;;;4957006;28;19948;-44
2020/12/04 00:19:18;;;;;;;;;;;5.20;72.90;;;;;;4941789;28;19933;-44
2020/12/04 00:21:49;;;;;;;;;;;5.20;73.30;;;;;;4963234;28;19961;-44
2020/12/04 00:24:16;;;;;;;;;;;5.20;73.20;;;;;;4956444;28;19939;-44
2020/12/04 00:26:43;;;;;;;;;;;5.20;73.10;;;;;;4962687;28;20350;-44
2020/12/04 00:29:11;;;;;;;;;;;5.20;73.40;;;;;;4964223;28;19926;-43
2020/12/04 00:31:39;;;;;;;;;;;5.10;73.60;;;;;;4960941;28;20056;-43
2020/12/04 00:34:07;;;;;;;;;;;5.10;73.80;;;;;;4955892;28;19956;-44
2020/12/04 00:36:37;;;;;;;;;;;5.10;74.00;;;;;;4962177;28;20369;-44
2020/12/04 00:39:04;;;;;;;;;;;5.10;74.30;;;;;;4969733;28;19933;-44
2020/12/04 00:41:32;;;;;;;;;;;5.10;74.40;;;;;;4963854;28;19937;-44
2020/12/04 00:43:59;;;;;;;;;;;5.10;74.50;;;;;;4962878;28;19933;-44
2020/12/04 00:46:26;;;;;;;;;;;5.10;74.70;;;;;;4960634;28;20007;-44
2020/12/04 00:48:52;;;;;;;;;;;5.10;74.70;;;;;;4960767;28;19933;-44
2020/12/04 00:51:20;;;;;;;;;;;5.10;74.90;;;;;;4948588;28;19934;-44
2020/12/04 00:53:47;;;;;;;;;;;5.10;75.20;;;;;;4954771;28;19938;-44
2020/12/04 00:56:16;;;;;;;;;;;5.10;75.40;;;;;;4941832;28;19933;-45
2020/12/04 00:58:48;;;;;;;;;;;5.10;75.40;;;;;;4960078;28;19938;-44
2020/12/04 01:01:16;;;;;;;;;;;5.10;75.80;;;;;;4959305;28;19925;-43
2020/12/04 01:03:43;;;;;;;;;;;5.10;76.10;;;;;;4954748;28;20375;-44
2020/12/04 01:06:14;;;;;;;;;;;5.10;76.10;;;;;;4942968;28;20040;-45
2020/12/04 01:08:42;;;;;;;;;;;5.10;76.20;;;;;;4957860;28;20611;-44
2020/12/04 01:11:09;;;;;;;;;;;5.10;76.20;;;;;;4957950;28;19940;-43
2020/12/04 01:13:38;;;;;;;;;;;5.10;76.10;;;;;;4962983;28;19937;-45
2020/12/04 01:16:08;;;;;;;;;;;5.10;75.90;;;;;;4949809;28;19925;-45
2020/12/04 01:18:36;;;;;;;;;;;5.10;76.00;;;;;;4965945;28;20005;-45
2020/12/04 01:21:07;;;;;;;;;;;5.10;76.30;;;;;;4965370;28;19925;-45
2020/12/04 01:23:36;;;;;;;;;;;5.10;76.30;;;;;;4967032;28;19948;-44
2020/12/04 01:26:03;;;;;;;;;;;5.10;76.60;;;;;;4964326;28;19926;-45
2020/12/04 01:28:30;;;;;;;;;;;5.10;76.70;;;;;;4958085;28;20048;-44
2020/12/04 01:30:58;;;;;;;;;;;5.10;76.70;;;;;;4955632;28;19984;-43
2020/12/04 01:33:29;;;;;;;;;;;5.00;76.70;;;;;;4960303;28;20373;-45
2020/12/04 01:35:56;;;;;;;;;;;5.10;76.80;;;;;;4957119;28;20021;-44
2020/12/04 01:38:24;;;;;;;;;;;5.00;76.90;;;;;;4956650;28;20375;-45
2020/12/04 01:40:56;;;;;;;;;;;5.00;77.00;;;;;;4959065;28;20040;-44
2020/12/04 01:43:24;;;;;;;;;;;5.00;77.00;;;;;;4962455;28;19925;-45
2020/12/04 01:45:51;;;;;;;;;;;5.00;77.00;;;;;;4969588;28;20000;-45
2020/12/04 01:48:19;;;;;;;;;;;5.00;77.10;;;;;;4974830;28;19996;-44
2020/12/04 01:50:46;;;;;;;;;;;5.00;77.10;;;;;;4972379;28;19960;-44
2020/12/04 01:53:14;;;;;;;;;;;5.00;77.20;;;;;;4972407;28;20048;-44
2020/12/04 01:55:44;;;;;;;;;;;5.10;77.10;;;;;;4964957;28;20016;-44
2020/12/04 01:58:13;;;;;;;;;;;5.10;77.20;;;;;;4961287;28;19937;-45
2020/12/04 02:00:40;;;;;;;;;;;5.00;77.20;;;;;;4961749;28;20352;-45
2020/12/04 02:03:10;;;;;;;;;;;5.00;77.50;;;;;;4963860;28;19945;-44
2020/12/04 02:05:42;;;;;;;;;;;5.00;77.60;;;;;;4970204;28;20146;-44
2020/12/04 02:08:20;;;;;;;;;;;5.00;77.70;;;;;;4955366;28;19942;-44
2020/12/04 02:10:50;;;;;;;;;;;4.90;77.90;;;;;;4962738;28;20132;-45
2020/12/04 02:13:17;;;;;;;;;;;4.90;78.30;;;;;;4955761;28;20006;-45
2020/12/04 02:15:45;;;;;;;;;;;4.90;78.30;;;;;;4960304;28;20338;-44
2020/12/04 02:18:13;;;;;;;;;;;4.90;78.40;;;;;;4963106;28;19933;-44
2020/12/04 02:20:43;;;;;;;;;;;4.80;78.60;;;;;;4954878;28;20283;-44
2020/12/04 02:23:11;;;;;;;;;;;4.90;78.90;;;;;;4963950;28;19925;-44
2020/12/04 02:25:39;;;;;;;;;;;4.90;79.00;;;;;;4966878;28;20531;-44
2020/12/04 02:28:06;;;;;;;;;;;4.90;78.90;;;;;;4962580;28;19984;-45
2020/12/04 02:30:35;;;;;;;;;;;4.90;79.10;;;;;;4967065;28;19933;-43
2020/12/04 02:33:02;;;;;;;;;;;4.90;79.00;;;;;;4962382;28;19996;-44
2020/12/04 02:35:30;;;;;;;;;;;4.90;78.90;;;;;;4957586;28;19949;-44
2020/12/04 02:37:57;;;;;;;;;;;4.90;79.00;;;;;;4943559;28;19941;-45
2020/12/04 02:40:25;;;;;;;;;;;4.90;79.00;;;;;;4958608;28;19977;-44
2020/12/04 02:42:54;;;;;;;;;;;4.90;79.10;;;;;;4964159;28;19930;-43
2020/12/04 02:45:21;;;;;;;;;;;4.90;79.10;;;;;;4962647;28;20782;-44
2020/12/04 02:47:48;;;;;;;;;;;4.90;79.20;;;;;;4967291;28;19929;-43
2020/12/04 02:50:15;;;;;;;;;;;5.00;79.40;;;;;;4968440;28;19939;-45
2020/12/04 02:52:44;;;;;;;;;;;5.00;79.40;;;;;;4954229;28;19937;-44
2020/12/04 02:55:11;;;;;;;;;;;5.00;79.40;;;;;;4966574;28;20005;-45
2020/12/04 02:57:38;;;;;;;;;;;5.00;79.40;;;;;;4964962;28;20344;-44
2020/12/04 03:00:06;;;;;;;;;;;5.00;79.50;;;;;;4939216;28;19932;-44
2020/12/04 03:02:34;;;;;;;;;;;5.00;79.60;;;;;;4946292;28;19935;-44
2020/12/04 03:05:01;;;;;;;;;;;5.00;79.50;;;;;;4963640;28;19929;-44
2020/12/04 03:07:29;;;;;;;;;;;5.00;79.70;;;;;;4960636;28;20224;-45
2020/12/04 03:09:58;;;;;;;;;;;4.90;79.80;;;;;;4948498;28;19964;-43
2020/12/04 03:12:25;;;;;;;;;;;4.90;80.00;;;;;;4950465;28;19929;-45
2020/12/04 03:14:53;;;;;;;;;;;4.90;80.00;;;;;;4951399;28;20314;-43
2020/12/04 03:17:23;;;;;;;;;;;5.00;80.10;;;;;;4939520;28;20052;-44
2020/12/04 03:19:50;;;;;;;;;;;4.90;80.20;;;;;;4939893;28;19936;-44
2020/12/04 03:22:17;;;;;;;;;;;4.90;80.30;;;;;;4943058;28;20448;-44
2020/12/04 03:24:44;;;;;;;;;;;5.00;80.40;;;;;;4956154;28;19933;-43
2020/12/04 03:27:12;;;;;;;;;;;5.00;80.60;;;;;;4957429;28;19932;-44
2020/12/04 03:29:40;;;;;;;;;;;5.00;80.60;;;;;;4959503;28;20279;-44
2020/12/04 03:32:08;;;;;;;;;;;5.00;80.60;;;;;;4963670;28;19937;-44
2020/12/04 03:34:35;;;;;;;;;;;5.00;80.70;;;;;;4957965;28;19937;-44
2020/12/04 03:37:02;;;;;;;;;;;5.00;80.70;;;;;;4958225;28;20024;-44
2020/12/04 03:39:32;;;;;;;;;;;5.00;80.70;;;;;;4963059;28;19934;-43
2020/12/04 03:41:59;;;;;;;;;;;5.00;80.70;;;;;;4967958;28;19945;-44
2020/12/04 03:44:26;;;;;;;;;;;5.00;80.80;;;;;;4942483;28;20019;-44
2020/12/04 03:46:54;;;;;;;;;;;5.10;80.90;;;;;;4940806;28;19956;-43
2020/12/04 03:49:21;;;;;;;;;;;5.00;80.90;;;;;;4940512;28;19925;-43
2020/12/04 03:51:48;;;;;;;;;;;5.00;80.90;;;;;;4964029;28;19963;-44
2020/12/04 03:54:15;;;;;;;;;;;5.10;80.90;;;;;;4965447;28;19941;-44
2020/12/04 03:56:43;;;;;;;;;;;5.10;81.00;;;;;;4963362;28;20383;-44
2020/12/04 03:59:10;;;;;;;;;;;5.10;81.00;;;;;;4947493;28;19960;-44
2020/12/04 04:01:37;;;;;;;;;;;5.10;81.00;;;;;;4961935;28;19932;-43
2020/12/04 04:04:04;;;;;;;;;;;5.10;81.00;;;;;;4964124;28;20603;-43
2020/12/04 04:06:31;;;;;;;;;;;5.10;81.10;;;;;;4958873;28;20396;-43
2020/12/04 04:08:59;;;;;;;;;;;5.10;81.10;;;;;;4945713;28;20266;-44
2020/12/04 04:11:26;;;;;;;;;;;5.10;81.00;;;;;;4962375;28;19976;-44
2020/12/04 04:13:53;;;;;;;;;;;5.10;81.00;;;;;;4962989;28;19926;-44
2020/12/04 04:16:20;;;;;;;;;;;5.10;81.00;;;;;;4943527;28;20033;-43
2020/12/04 04:18:48;;;;;;;;;;;5.10;81.10;;;;;;4945932;28;19929;-43
2020/12/04 04:21:17;;;;;;;;;;;5.00;81.20;;;;;;4934699;28;19930;-43
2020/12/04 04:23:44;;;;;;;;;;;5.10;81.30;;;;;;4961444;28;19933;-43
2020/12/04 04:26:12;;;;;;;;;;;5.10;81.40;;;;;;4971056;28;19956;-44
2020/12/04 04:28:40;;;;;;;;;;;5.10;81.40;;;;;;4969277;28;19936;-43
2020/12/04 04:31:08;;;;;;;;;;;5.10;81.40;;;;;;4963258;28;19936;-43
2020/12/04 04:33:35;;;;;;;;;;;5.10;81.50;;;;;;4958453;28;19979;-44
2020/12/04 04:36:03;;;;;;;;;;;5.10;81.60;;;;;;4963902;28;20053;-44
2020/12/04 04:38:31;;;;;;;;;;;5.10;81.60;;;;;;4971221;28;19980;-43
2020/12/04 04:40:58;;;;;;;;;;;5.10;81.70;;;;;;4953674;28;19981;-43
2020/12/04 04:43:29;;;;;;;;;;;5.10;81.80;;;;;;4971778;28;20025;-44
2020/12/04 04:46:01;;;;;;;;;;;5.10;81.80;;;;;;4964557;28;19925;-44
2020/12/04 04:48:31;;;;;;;;;;;5.10;81.80;;;;;;4961742;28;19929;-42
2020/12/04 04:50:58;;;;;;;;;;;5.10;81.90;;;;;;4968058;28;20294;-43
2020/12/04 04:53:27;;;;;;;;;;;5.10;81.90;;;;;;4956565;28;19932;-43
2020/12/04 04:55:56;;;;;;;;;;;5.10;81.90;;;;;;4958835;28;19934;-43
2020/12/04 04:58:25;;;;;;;;;;;5.10;82.00;;;;;;4953397;28;20346;-44
2020/12/04 05:00:53;;;;;;;;;;;5.10;82.00;;;;;;4958710;28;21446;-44
2020/12/04 05:03:23;;;;;;;;;;;5.10;82.10;;;;;;4961447;28;19987;-44
2020/12/04 05:05:52;;;;;;;;;;;5.10;82.10;;;;;;4958159;28;19933;-43
2020/12/04 05:08:21;;;;;;;;;;;5.10;82.10;;;;;;4965004;28;19932;-44
2020/12/04 05:10:49;;;;;;;;;;;5.10;82.30;;;;;;4965153;28;19967;-43
2020/12/04 05:13:21;;;;;;;;;;;5.10;82.40;;;;;;4957200;28;20286;-44
2020/12/04 05:15:48;;;;;;;;;;;5.10;82.40;;;;;;4963505;28;20027;-42
2020/12/04 05:18:17;;;;;;;;;;;5.10;82.40;;;;;;4954674;28;19932;-43
2020/12/04 05:20:58;;;;;;;;;;;5.10;82.50;;;;;;4953443;28;19929;-44
2020/12/04 05:23:28;;;;;;;;;;;5.10;82.60;;;;;;4966150;28;19930;-43
2020/12/04 05:25:55;;;;;;;;;;;5.10;82.60;;;;;;4965146;28;25390;-44
2020/12/04 05:28:26;;;;;;;;;;;5.20;82.60;;;;;;4966607;28;20010;-43
2020/12/04 05:31:04;;;;;;;;;;;5.20;82.60;;;;;;4962148;28;19933;-44
2020/12/04 05:33:32;;;;;;;;;;;5.20;82.60;;;;;;4972678;28;19960;-43
2020/12/04 05:36:00;;;;;;;;;;;5.20;82.70;;;;;;4971907;28;19929;-44
2020/12/04 05:38:27;;;;;;;;;;;5.20;82.80;;;;;;4968967;28;19925;-44
2020/12/04 05:41:05;;;;;;;;;;;5.20;82.80;;;;;;4970740;28;20604;-43
2020/12/04 05:43:39;;;;;;;;;;;5.30;82.90;;;;;;4973582;28;19936;-44
2020/12/04 05:46:19;;;;;;;;;;;5.30;82.90;;;;;;4964072;28;19933;-44
2020/12/04 05:48:56;;;;;;;;;;;5.30;82.90;;;;;;4964891;28;19932;-44
2020/12/04 05:51:28;;;;;;;;;;;5.30;82.90;;;;;;4970419;28;20173;-43
2020/12/04 05:53:55;;;;;;;;;;;5.30;83.00;;;;;;4970219;28;19926;-43
2020/12/04 05:56:23;;;;;;;;;;;5.30;83.00;;;;;;4969713;28;20017;-44
2020/12/04 05:58:53;;;;;;;;;;;5.30;83.20;;;;;;4967382;28;19929;-44
2020/12/04 06:01:21;;;;;;;;;;;5.30;83.20;;;;;;4965204;28;20429;-43
2020/12/04 06:03:49;;;;;;;;;;;5.40;83.30;;;;;;4971125;28;20456;-44
2020/12/04 06:06:22;;;;;;;;;;;5.40;83.40;;;;;;4968735;28;19933;-44
2020/12/04 06:08:50;;;;;;;;;;;5.40;83.50;;;;;;4969614;28;19929;-44
2020/12/04 06:11:18;;;;;;;;;;;5.40;83.50;;;;;;4967781;28;19940;-44
2020/12/04 06:13:45;;;;;;;;;;;5.40;83.50;;;;;;4964562;28;20358;-44
2020/12/04 06:16:14;;;;;;;;;;;5.50;83.50;;;;;;4967542;28;20027;-44
2020/12/04 06:18:42;;;;;;;;;;;5.50;83.60;;;;;;4956955;28;20333;-43
2020/12/04 06:21:10;;;;;;;;;;;5.50;83.60;;;;;;4959199;28;19936;-43
2020/12/04 06:23:37;;;;;;;;;;;5.50;83.80;;;;;;4970204;28;20309;-44
2020/12/04 06:26:06;;;;;;;;;;;5.50;83.80;;;;;;4963524;28;19929;-44
2020/12/04 06:28:40;;;;;;;;;;;5.60;83.90;;;;;;4964134;28;19956;-42
2020/12/04 06:31:09;;;;;;;;;;;5.60;84.00;;;;;;4949793;28;19926;-44
2020/12/04 06:33:39;;;;;;;;;;;5.60;83.30;;;;;;4959727;28;20016;-44
2020/12/04 06:36:09;;;;;;;;;;;5.70;83.10;;;;;;4960217;28;19930;-44
2020/12/04 06:38:40;;;;;;;;;;;5.70;82.50;;;;;;4963179;28;19934;-43
2020/12/04 06:41:22;;;;;;;;;;;5.80;82.40;;;;;;4960622;28;19933;-44
2020/12/04 06:43:50;;;;;;;;;;;5.80;82.10;;;;;;4968529;28;19969;-44
2020/12/04 06:46:26;;;;;;;;;;;5.80;82.00;;;;;;4961695;28;20012;-44
2020/12/04 06:49:11;;;;;;;;;;;5.90;81.70;;;;;;4964291;28;19926;-43
2020/12/04 06:51:39;;;;;;;;;;;5.90;81.70;;;;;;4962823;28;19932;-43
2020/12/04 06:54:07;;;;;;;;;;;5.90;81.40;;;;;;4959373;28;20029;-43
2020/12/04 06:56:35;;;;;;;;;;;6.00;80.80;;;;;;4961611;28;19933;-43
2020/12/04 06:59:02;;;;;;;;;;;6.10;80.70;;;;;;4967546;28;19936;-44
2020/12/04 07:01:29;;;;;;;;;;;6.10;80.60;;;;;;4963111;28;19944;-44
2020/12/04 07:04:04;;;;;;;;;;;6.10;80.50;;;;;;4939096;28;20439;-44
2020/12/04 07:06:32;;;;;;;;;;;6.20;80.70;;;;;;4962503;28;19925;-44
2020/12/04 07:09:04;;;;;;;;;;;6.20;80.40;;;;;;4965615;28;20019;-43
2020/12/04 07:11:31;;;;;;;;;;;6.20;80.20;;;;;;4973306;28;19934;-44
2020/12/04 07:13:59;;;;;;;;;;;6.20;80.00;;;;;;4973760;28;19925;-43
2020/12/04 07:16:27;;;;;;;;;;;6.20;80.20;;;;;;4977181;28;19932;-44
2020/12/04 07:18:55;;;;;;;;;;;6.20;80.00;;;;;;4962166;28;19948;-43
2020/12/04 07:21:26;;;;;;;;;;;6.20;79.90;;;;;;4966087;28;19930;-44
2020/12/04 07:23:55;;;;;;;;;;;6.20;80.20;;;;;;4967007;28;19929;-43
2020/12/04 07:26:22;;;;;;;;;;;6.20;80.20;;;;;;4966423;28;19940;-43
2020/12/04 07:28:50;;;;;;;;;;;6.30;80.00;;;;;;4966203;28;19936;-43
2020/12/04 07:31:21;;;;;;;;;;;6.30;80.20;;;;;;4951563;28;19930;-44
2020/12/04 07:33:59;;;;;;;;;;;6.30;80.20;;;;;;4959633;28;20047;-43
2020/12/04 07:36:27;;;;;;;;;;;6.40;79.90;;;;;;4956393;28;19933;-42
2020/12/04 07:38:54;;;;;;;;;;;6.40;80.00;;;;;;4960826;28;20413;-44
2020/12/04 07:41:31;;;;;;;;;;;6.40;79.90;;;;;;4948224;28;19929;-42
2020/12/04 07:44:06;;;;;;;;;;;6.40;80.20;;;;;;4972016;28;19930;-42
2020/12/04 07:46:34;;;;;;;;;;;6.50;80.10;;;;;;4969843;28;19984;-42
2020/12/04 07:49:13;;;;;;;;;;;6.50;80.10;;;;;;4962994;28;20397;-44
2020/12/04 07:51:41;;;;;;;;;;;6.50;80.00;;;;;;4960580;28;20147;-44
2020/12/04 07:54:22;;;;;;;;;;;6.50;79.80;;;;;;4970796;28;19948;-44
2020/12/04 07:56:51;;;;;;;;;;;6.50;79.50;;;;;;4948862;28;19929;-44
2020/12/04 07:59:20;;;;;;;;;;;6.50;79.90;;;;;;4957069;28;20579;-44
2020/12/04 08:01:47;;;;;;;;;;;6.50;79.70;;;;;;4973023;28;19936;-42
2020/12/04 08:04:17;;;;;;;;;;;6.60;79.60;;;;;;4971609;28;20281;-44
2020/12/04 08:06:45;;;;;;;;;;;6.60;79.50;;;;;;4963201;28;19933;-44
2020/12/04 08:09:16;;;;;;;;;;;6.60;79.60;;;;;;4962248;28;19933;-44
2020/12/04 08:11:49;;;;;;;;;;;6.60;79.50;;;;;;4954740;28;19925;-43
2020/12/04 08:14:37;;;;;;;;;;;6.60;79.30;;;;;;4942808;28;19925;-44
2020/12/04 08:17:05;;;;;;;;;;;6.60;79.50;;;;;;4970600;28;19985;-44
2020/12/04 08:19:35;;;;;;;;;;;6.60;79.40;;;;;;4960515;28;19929;-44
2020/12/04 08:22:04;;;;;;;;;;;6.70;79.00;;;;;;4964573;28;19961;-43
2020/12/04 08:24:33;;;;;;;;;;;6.70;78.80;;;;;;4963313;28;19929;-43
2020/12/04 08:27:07;;;;;;;;;;;6.70;78.80;;;;;;4963881;28;20429;-43
2020/12/04 08:29:38;;;;;;;;;;;6.70;79.00;;;;;;4961469;28;19936;-44
2020/12/04 08:32:07;;;;;;;;;;;6.70;78.70;;;;;;4968473;28;19930;-43
2020/12/04 08:34:35;;;;;;;;;;;6.70;78.80;;;;;;4968009;28;20298;-43
2020/12/04 08:37:10;;;;;;;;;;;6.70;78.80;;;;;;4978518;28;20519;-42
2020/12/04 08:39:38;;;;;;;;;;;6.70;78.60;;;;;;4978132;28;19925;-41
2020/12/04 08:42:15;;;;;;;;;;;6.80;78.40;;;;;;4966828;28;19972;-42
2020/12/04 08:44:53;;;;;;;;;;;6.80;78.10;;;;;;4969495;28;20436;-43
2020/12/04 08:47:31;;;;;;;;;;;6.80;77.80;;;;;;4970538;28;20663;-43
2020/12/04 08:50:03;;;;;;;;;;;6.80;77.50;;;;;;4965220;28;19926;-42
2020/12/04 08:52:33;;;;;;;;;;;6.80;77.20;;;;;;4972125;28;19933;-41
2020/12/04 08:55:05;;;;;;;;;;;6.80;77.40;;;;;;4959598;28;20487;-42
2020/12/04 08:57:33;;;;;;;;;;;6.80;77.80;;;;;;4960794;28;19934;-44
2020/12/04 09:00:01;;;;;;;;;;;6.80;77.20;;;;;;4963632;28;19929;-44
2020/12/04 09:02:28;;;;;;;;;;;6.80;77.20;;;;;;4967152;28;19929;-43
2020/12/04 09:04:55;;;;;;;;;;;6.90;77.20;;;;;;4963108;28;20020;-43
2020/12/04 09:07:23;;;;;;;;;;;6.90;76.90;;;;;;4966866;28;19925;-43
2020/12/04 09:09:50;;;;;;;;;;;6.90;76.70;;;;;;4967817;28;19930;-43
2020/12/04 09:12:21;;;;;;;;;;;7.00;76.70;;;;;;4959674;28;19930;-43
2020/12/04 09:14:49;;;;;;;;;;;7.10;77.00;;;;;;4959649;28;20369;-44
2020/12/04 09:17:20;;;;;;;;;;;7.10;76.30;;;;;;4961867;28;19930;-43
2020/12/04 09:19:47;;;;;;;;;;;7.20;75.80;;;;;;4947521;28;19925;-43
2020/12/04 09:22:15;;;;;;;;;;;7.10;76.40;;;;;;4960663;28;20275;-44
2020/12/04 09:24:43;;;;;;;;;;;7.10;76.30;;;;;;4961179;28;19931;-44
2020/12/04 09:27:12;;;;;;;;;;;7.20;76.60;;;;;;4961901;28;19937;-43
2020/12/04 09:29:40;;;;;;;;;;;7.20;76.60;;;;;;4969158;28;20321;-44
2020/12/04 09:32:12;;;;;;;;;;;7.20;76.90;;;;;;4963576;28;19980;-43
2020/12/04 09:34:42;;;;;;;;;;;7.30;76.80;;;;;;4967421;28;19930;-43
2020/12/04 09:37:16;;;;;;;;;;;7.30;76.40;;;;;;4973718;28;19925;-43
2020/12/04 09:39:44;;;;;;;;;;;7.30;76.00;;;;;;4973622;28;20760;-43
2020/12/04 09:42:14;;;;;;;;;;;7.40;76.10;;;;;;4963339;28;19941;-44
2020/12/04 09:44:42;;;;;;;;;;;7.30;76.40;;;;;;4968551;28;19937;-41
2020/12/04 09:47:11;;;;;;;;;;;7.40;76.00;;;;;;4965865;28;20404;-43
2020/12/04 09:49:39;;;;;;;;;;;7.30;76.00;;;;;;4968121;28;19936;-42
2020/12/04 09:52:07;;;;;;;;;;;7.30;76.00;;;;;;4963082;28;19933;-43
2020/12/04 09:54:36;;;;;;;;;;;7.40;75.60;;;;;;4967489;28;20027;-43
2020/12/04 09:57:04;;;;;;;;;;;7.40;75.30;;;;;;4969897;28;20036;-43
2020/12/04 09:59:31;;;;;;;;;;;7.40;75.50;;;;;;4967023;28;19933;-44
2020/12/04 10:01:59;;;;;;;;;;;7.40;75.40;;;;;;4970703;28;19925;-42
2020/12/04 10:04:28;;;;;;;;;;;7.50;74.30;;;;;;4968870;28;20031;-42
2020/12/04 10:06:56;;;;;;;;;;;7.50;74.40;;;;;;4966009;28;19926;-44
2020/12/04 10:09:25;;;;;;;;;;;7.60;74.40;;;;;;4965481;28;19976;-43
2020/12/04 10:11:54;;;;;;;;;;;7.70;74.10;;;;;;4960681;28;20026;-43
2020/12/04 10:14:22;;;;;;;;;;;7.70;73.00;;;;;;4966632;28;20369;-44
2020/12/04 10:16:49;;;;;;;;;;;7.70;73.50;;;;;;4967899;28;20418;-43
2020/12/04 10:19:16;;;;;;;;;;;7.70;73.40;;;;;;4962624;28;19961;-43
2020/12/04 10:21:45;;;;;;;;;;;7.70;73.30;;;;;;4959748;28;20448;-44
2020/12/04 10:24:13;;;;;;;;;;;7.70;72.90;;;;;;4962600;28;20397;-44
2020/12/04 10:26:42;;;;;;;;;;;7.70;72.90;;;;;;4965360;28;20267;-44
2020/12/04 10:29:10;;;;;;;;;;;7.80;73.30;;;;;;4957738;28;20247;-43
2020/12/04 10:31:40;;;;;;;;;;;7.80;73.50;;;;;;4966404;28;20326;-44
2020/12/04 10:34:08;;;;;;;;;;;7.80;73.00;;;;;;4970416;28;19933;-43
2020/12/04 10:36:36;;;;;;;;;;;7.90;73.10;;;;;;4969297;28;19961;-44
2020/12/04 10:39:04;;;;;;;;;;;7.90;72.90;;;;;;4964110;28;19929;-44
2020/12/04 10:41:32;;;;;;;;;;;7.90;72.60;;;;;;4961070;28;19929;-44
2020/12/04 10:44:00;;;;;;;;;;;8.00;72.40;;;;;;4966456;28;19963;-43
2020/12/04 10:46:27;;;;;;;;;;;8.00;72.60;;;;;;4939349;28;19936;-43
2020/12/04 10:48:55;;;;;;;;;;;8.00;72.80;;;;;;4959155;28;19972;-44
2020/12/04 10:51:22;;;;;;;;;;;8.00;72.20;;;;;;4961413;28;19930;-44
2020/12/04 10:53:51;;;;;;;;;;;8.00;72.20;;;;;;4966736;28;19933;-43
2020/12/04 10:56:22;;;;;;;;;;;8.10;72.40;;;;;;4961728;28;19929;-43
2020/12/04 10:58:50;;;;;;;;;;;8.10;71.90;;;;;;4953730;28;19988;-44
2020/12/04 11:01:26;;;;;;;;;;;8.10;71.80;;;;;;4959955;28;20312;-43
2020/12/04 11:06:22;;;;;;;;;;;8.10;71.20;;;;;;4960911;28;19952;-42
2020/12/04 11:08:50;;;;;;;;;;;8.10;71.50;;;;;;4966374;28;20377;-43
2020/12/04 11:11:21;;;;;;;;;;;8.20;71.50;;;;;;4970764;28;20374;-43
2020/12/04 11:13:49;;;;;;;;;;;8.10;71.30;;;;;;4964188;28;20408;-43
2020/12/04 11:16:16;;;;;;;;;;;8.10;71.50;;;;;;4966573;28;20037;-43
2020/12/04 11:18:44;;;;;;;;;;;8.10;71.50;;;;;;4971963;28;19973;-43
2020/12/04 11:21:12;;;;;;;;;;;8.10;71.70;;;;;;4963533;28;20109;-42
2020/12/04 11:23:39;;;;;;;;;;;8.00;72.00;;;;;;4952441;28;20267;-43
2020/12/04 11:26:06;;;;;;;;;;;8.10;72.30;;;;;;4966183;28;20333;-43
2020/12/04 11:28:35;;;;;;;;;;;8.10;72.50;;;;;;4964029;28;20346;-43
2020/12/04 11:31:02;;;;;;;;;;;8.10;72.80;;;;;;4968145;28;20036;-44
2020/12/04 11:33:29;;;;;;;;;;;8.00;73.00;;;;;;4969508;28;19926;-43
2020/12/04 11:35:57;;;;;;;;;;;8.00;73.20;;;;;;4962617;28;19940;-43
2020/12/04 11:38:25;;;;;;;;;;;8.00;73.50;;;;;;4967132;28;19926;-42
2020/12/04 11:40:55;;;;;;;;;;;8.00;73.90;;;;;;4970803;28;19925;-43
2020/12/04 11:43:22;;;;;;;;;;;8.00;75.00;;;;;;4967487;28;19930;-42
2020/12/04 11:45:50;;;;;;;;;;;8.00;75.50;;;;;;4966555;28;19959;-42
2020/12/04 11:48:20;;;;;;;;;;;8.00;76.30;;;;;;4964076;28;19932;-43
2020/12/04 11:50:47;;;;;;;;;;;8.00;76.90;;;;;;4964165;28;21608;-42
2020/12/04 11:53:16;;;;;;;;;;;8.00;77.10;;;;;;4948478;28;19949;-43
2020/12/04 11:55:43;;;;;;;;;;;8.00;77.30;;;;;;4964952;28;20076;-43
2020/12/04 11:58:14;;;;;;;;;;;8.00;77.70;;;;;;4962363;28;19937;-43
2020/12/04 12:00:42;;;;;;;;;;;8.00;78.10;;;;;;4964412;28;19941;-43
2020/12/04 12:03:09;;;;;;;;;;;8.00;78.30;;;;;;4968361;28;19930;-43
2020/12/04 12:05:37;;;;;;;;;;;8.00;78.80;;;;;;4956413;28;19926;-42
2020/12/04 12:08:05;;;;;;;;;;;8.00;79.30;;;;;;4956678;28;19926;-43
2020/12/04 12:10:33;;;;;;;;;;;8.00;79.60;;;;;;4967774;28;20461;-43
2020/12/04 12:13:02;;;;;;;;;;;8.00;79.80;;;;;;4969624;28;19934;-43
2020/12/04 12:15:29;;;;;;;;;;;8.00;80.30;;;;;;4953624;28;20378;-43
2020/12/04 12:17:57;;;;;;;;;;;8.00;80.60;;;;;;4961778;28;19930;-43
2020/12/04 12:20:24;;;;;;;;;;;8.00;80.80;;;;;;4942835;28;20383;-43
2020/12/04 12:22:53;;;;;;;;;;;8.00;81.20;;;;;;4957452;28;19936;-43
2020/12/04 12:25:25;;;;;;;;;;;8.00;81.20;;;;;;4954821;28;19930;-42
2020/12/04 12:28:04;;;;;;;;;;;8.00;81.70;;;;;;4971326;28;19926;-43
2020/12/04 12:30:33;;;;;;;;;;;8.00;81.80;;;;;;4943837;28;21384;-43
2020/12/04 12:33:00;;;;;;;;;;;8.00;81.90;;;;;;4967973;28;19933;-43
2020/12/04 12:35:28;;;;;;;;;;;8.00;81.70;;;;;;4980026;28;19925;-43
2020/12/04 12:37:55;;;;;;;;;;;8.10;81.80;;;;;;4948769;28;20336;-43
2020/12/04 12:40:23;;;;;;;;;;;8.10;81.90;;;;;;4951145;28;19925;-43
2020/12/04 12:42:51;;;;;;;;;;;8.10;81.90;;;;;;4946924;28;19984;-43
2020/12/04 12:45:18;;;;;;;;;;;8.20;81.50;;;;;;4965148;28;19979;-43
2020/12/04 12:47:46;;;;;;;;;;;8.20;81.10;;;;;;4975809;28;20678;-42
2020/12/04 12:50:13;;;;;;;;;;;8.10;81.40;;;;;;4944473;28;19925;-43
2020/12/04 12:52:40;;;;;;;;;;;8.20;81.30;;;;;;4962527;28;19925;-43
2020/12/04 12:55:08;;;;;;;;;;;8.20;80.90;;;;;;4962821;28;20262;-43
2020/12/04 12:57:36;;;;;;;;;;;8.20;80.50;;;;;;4960622;28;20509;-43
2020/12/04 13:00:05;;;;;;;;;;;8.20;80.50;;;;;;4962164;28;19968;-42
2020/12/04 13:02:36;;;;;;;;;;;8.20;80.50;;;;;;4961302;28;20592;-43
2020/12/04 13:05:31;;;;;;;;;;;8.20;80.20;;;;;;4970387;28;20326;-41
2020/12/04 13:07:54;;;;;;;;;;;8.20;80.20;;;;;;4960656;28;19934;-43
2020/12/04 13:10:21;;;;;;;;;;;8.20;80.20;;;;;;4960902;28;19934;-43
2020/12/04 13:12:49;;;;;;;;;;;8.20;80.00;;;;;;4970935;28;20216;-43
2020/12/04 13:15:18;;;;;;;;;;;8.20;80.30;;;;;;4958505;28;19937;-43
2020/12/04 13:17:49;;;;;;;;;;;8.20;80.40;;;;;;4963866;28;19933;-43
2020/12/04 13:20:17;;;;;;;;;;;8.20;80.70;;;;;;4963079;28;20381;-43
2020/12/04 13:25:32;;;;;;;;;;;8.20;81.00;;;;;;4962711;28;20297;-43
2020/12/04 13:28:01;;;;;;;;;;;8.20;81.10;;;;;;4962809;28;20586;-42
2020/12/04 13:30:28;;;;;;;;;;;8.20;81.30;;;;;;4938284;28;19938;-41
2020/12/04 13:32:57;;;;;;;;;;;8.20;81.70;;;;;;4969060;28;19926;-42
2020/12/04 13:35:25;;;;;;;;;;;8.20;81.90;;;;;;4959417;28;19933;-43
2020/12/04 13:37:52;;;;;;;;;;;8.20;82.10;;;;;;4961426;28;20035;-43
2020/12/04 13:40:19;;;;;;;;;;;8.10;82.20;;;;;;4960052;28;19929;-43
2020/12/04 13:42:46;;;;;;;;;;;8.10;82.40;;;;;;4946309;28;20028;-43
2020/12/04 13:45:14;;;;;;;;;;;8.10;82.50;;;;;;4952824;28;20360;-43
2020/12/04 13:47:43;;;;;;;;;;;8.10;82.60;;;;;;4962693;28;21181;-42
2020/12/04 13:50:11;;;;;;;;;;;8.00;82.70;;;;;;4957056;28;20641;-42
2020/12/04 13:52:38;;;;;;;;;;;8.00;82.80;;;;;;4956420;28;20007;-42
2020/12/04 13:55:06;;;;;;;;;;;8.00;82.70;;;;;;4934496;28;20544;-42
2020/12/04 13:57:33;;;;;;;;;;;8.00;82.70;;;;;;4961347;28;20322;-41
2020/12/04 14:00:02;;;;;;;;;;;8.00;82.50;;;;;;4955497;28;19933;-42
2020/12/04 14:02:31;;;;;;;;;;;7.90;82.40;;;;;;4926896;28;20032;-42
2020/12/04 14:05:00;;;;;;;;;;;7.90;82.40;;;;;;4955226;28;20405;-42
2020/12/04 14:07:27;;;;;;;;;;;7.90;82.40;;;;;;4964912;28;19937;-42
2020/12/04 14:09:54;;;;;;;;;;;7.90;82.30;;;;;;4943061;28;20019;-42
2020/12/04 14:12:25;;;;;;;;;;;7.90;82.30;;;;;;4963397;28;20559;-44
2020/12/04 14:14:53;;;;;;;;;;;7.80;82.20;;;;;;4968891;28;19940;-42
2020/12/04 14:17:21;;;;;;;;;;;7.80;82.30;;;;;;4965170;28;19930;-43
2020/12/04 14:19:48;;;;;;;;;;;7.80;82.30;;;;;;4965735;28;20408;-42
2020/12/04 14:22:16;;;;;;;;;;;7.80;82.30;;;;;;4959450;28;19935;-41
2020/12/04 14:24:43;;;;;;;;;;;7.80;82.40;;;;;;4960405;28;20337;-44
2020/12/04 14:27:11;;;;;;;;;;;7.80;82.40;;;;;;4965625;28;19984;-42
2020/12/04 14:29:38;;;;;;;;;;;7.80;82.40;;;;;;4948593;28;20188;-42
2020/12/04 14:32:06;;;;;;;;;;;7.90;82.40;;;;;;4964889;28;20437;-41
2020/12/04 14:34:34;;;;;;;;;;;7.90;82.40;;;;;;4960980;28;19934;-43
2020/12/04 14:37:02;;;;;;;;;;;7.90;82.30;;;;;;4943581;28;20417;-44
2020/12/04 14:39:30;;;;;;;;;;;7.80;82.40;;;;;;4963634;28;19934;-43
2020/12/04 14:41:57;;;;;;;;;;;7.80;82.50;;;;;;4965886;28;20378;-43
2020/12/04 14:44:25;;;;;;;;;;;7.60;82.50;;;;;;4943259;28;19984;-43
2020/12/04 14:46:54;;;;;;;;;;;7.60;82.50;;;;;;4962384;28;19944;-43